createdAt,value
2019-04-03T00:02:21.139Z,3.90
2019-04-03T00:05:04.286Z,3.62
2019-04-03T00:07:45.454Z,3.90
2019-04-03T00:10:26.211Z,3.70
2019-04-03T00:13:07.264Z,3.67
2019-04-03T00:15:48.051Z,3.62
2019-04-03T00:18:28.491Z,3.60
2019-04-03T00:21:09.326Z,3.83
2019-04-03T00:23:52.167Z,3.47
2019-04-03T00:26:32.706Z,3.22
2019-04-03T00:29:13.455Z,3.58
2019-04-03T00:31:54.098Z,3.50
2019-04-03T00:34:35.206Z,3.52
2019-04-03T00:37:15.772Z,3.52
2019-04-03T00:39:56.349Z,2.92
2019-04-03T00:42:36.549Z,3.42
2019-04-03T00:45:17.375Z,3.67
2019-04-03T00:47:57.759Z,3.30
2019-04-03T00:50:38.711Z,3.45
2019-04-03T00:53:20.219Z,3.37
2019-04-03T00:56:01.456Z,3.37
2019-04-03T00:58:42.925Z,3.80
2019-04-03T01:01:24.705Z,3.37
2019-04-03T01:04:06.191Z,3.00
2019-04-03T01:06:46.787Z,3.42
2019-04-03T01:09:29.036Z,3.83
2019-04-03T01:12:10.368Z,3.62
2019-04-03T01:14:50.750Z,3.62
2019-04-03T01:17:32.752Z,3.62
2019-04-03T01:20:13.699Z,3.27
2019-04-03T01:22:45.547Z,3.50
2019-04-03T01:25:33.408Z,3.72
2019-04-03T01:28:21.219Z,3.92
2019-04-03T01:39:49.001Z,3.27
2019-04-03T01:42:37.723Z,3.98
2019-04-03T01:45:26.263Z,3.37
2019-04-03T01:48:15.151Z,3.75
2019-04-03T01:51:03.287Z,3.62
2019-04-03T01:53:51.149Z,3.47
2019-04-03T01:56:39.096Z,3.77
2019-04-03T01:59:28.575Z,3.65
2019-04-03T02:02:16.415Z,3.83
2019-04-03T02:05:04.284Z,3.20
2019-04-03T02:07:52.118Z,3.52
2019-04-03T02:10:39.975Z,4.20
2019-04-03T02:13:27.914Z,3.90
2019-04-03T02:16:17.395Z,4.37
2019-04-03T02:19:05.245Z,3.90
2019-04-03T02:21:53.090Z,4.58
2019-04-03T02:24:41.082Z,4.00
2019-04-03T02:30:37.764Z,3.40
2019-04-03T02:33:28.549Z,3.30
2019-04-03T02:36:15.186Z,3.87
2019-04-03T02:42:11.695Z,3.75
2019-04-03T02:44:59.532Z,3.12
2019-04-03T02:47:47.566Z,3.37
2019-04-03T02:50:37.528Z,4.15
2019-04-03T02:53:27.493Z,3.98
2019-04-03T02:56:16.745Z,3.67
2019-04-03T02:59:04.588Z,3.72
2019-04-03T03:01:45.608Z,3.27
2019-04-03T03:04:26.342Z,3.47
2019-04-03T03:07:07.189Z,4.00
2019-04-03T03:09:48.278Z,4.30
2019-04-03T03:12:30.069Z,3.67
2019-04-03T03:15:12.316Z,4.40
2019-04-03T03:17:55.099Z,3.75
2019-04-03T03:20:39.796Z,4.10
2019-04-03T03:23:22.423Z,3.70
2019-04-03T03:26:04.148Z,3.72
2019-04-03T03:28:46.963Z,3.65
2019-04-03T03:31:57.507Z,3.67
2019-04-03T03:34:09.176Z,3.70
2019-04-03T03:36:50.567Z,3.75
2019-04-03T03:39:31.705Z,3.70
2019-04-03T03:42:12.235Z,3.45
2019-04-03T03:44:53.181Z,4.80
2019-04-03T03:47:35.465Z,4.55
2019-04-03T03:50:16.582Z,4.33
2019-04-03T03:52:57.138Z,5.10
2019-04-03T03:55:38.730Z,4.65
2019-04-03T03:58:20.314Z,4.28
2019-04-03T04:01:01.119Z,5.00
2019-04-03T04:03:42.428Z,5.05
2019-04-03T04:06:25.582Z,5.05
2019-04-03T04:09:06.090Z,6.03
2019-04-03T04:11:46.614Z,5.33
2019-04-03T04:14:28.249Z,5.85
2019-04-03T04:17:15.369Z,4.95
2019-04-03T04:19:51.881Z,4.72
2019-04-03T04:22:32.652Z,5.45
2019-04-03T04:25:13.911Z,5.30
2019-04-03T04:27:54.526Z,4.67
2019-04-03T04:30:35.135Z,5.37
2019-04-03T04:33:17.227Z,5.72
2019-04-03T04:41:30.640Z,5.87
2019-04-03T04:44:14.324Z,5.75
2019-04-03T04:49:44.005Z,6.72
2019-04-03T04:55:14.411Z,5.53
2019-04-03T04:57:58.630Z,6.20
2019-04-03T05:06:11.219Z,6.70
2019-04-03T05:08:55.773Z,5.95
2019-04-03T05:22:48.095Z,6.83
2019-04-03T05:33:55.955Z,7.40
2019-04-03T05:36:36.742Z,7.20
2019-04-03T05:39:17.431Z,6.87
2019-04-03T05:41:59.558Z,7.12
2019-04-03T05:44:40.571Z,6.65
2019-04-03T05:47:21.763Z,6.97
2019-04-03T05:50:02.337Z,7.15
2019-04-03T05:52:42.827Z,6.78
2019-04-03T05:55:23.858Z,6.42
2019-04-03T05:58:04.922Z,5.87
2019-04-03T06:00:45.596Z,5.67
2019-04-03T06:03:37.937Z,5.72
2019-04-03T06:06:09.731Z,5.70
2019-04-03T06:08:51.614Z,5.62
2019-04-03T06:11:32.767Z,5.95
2019-04-03T06:14:13.212Z,6.25
2019-04-03T06:16:56.085Z,5.47
2019-04-03T06:19:39.187Z,5.97
2019-04-03T06:22:21.646Z,5.37
2019-04-03T06:25:01.119Z,5.50
2019-04-03T06:27:45.209Z,5.80
2019-04-03T06:30:24.911Z,5.45
2019-04-03T06:33:06.460Z,5.05
2019-04-03T06:35:47.042Z,6.20
2019-04-03T06:38:27.789Z,5.53
2019-04-03T06:41:09.184Z,6.03
2019-04-03T06:43:52.507Z,5.90
2019-04-03T06:46:32.659Z,6.17
2019-04-03T06:49:12.990Z,6.35
2019-04-03T06:51:53.615Z,6.42
2019-04-03T06:54:34.204Z,6.40
2019-04-03T06:57:14.822Z,5.05
2019-04-03T06:59:55.171Z,4.00
2019-04-03T07:02:35.827Z,4.30
2019-04-03T07:05:16.480Z,3.80
2019-04-03T07:07:56.922Z,4.08
2019-04-03T07:10:40.187Z,3.50
2019-04-03T07:16:06.279Z,4.35
2019-04-03T07:18:46.989Z,5.22
2019-04-03T07:24:17.148Z,4.97
2019-04-03T07:26:58.196Z,5.78
2019-04-03T07:29:38.713Z,5.12
2019-04-03T07:32:19.301Z,4.72
2019-04-03T07:35:00.041Z,5.12
2019-04-03T07:37:40.578Z,5.00
2019-04-03T07:40:21.445Z,4.70
2019-04-03T07:43:02.372Z,4.33
2019-04-03T07:45:44.042Z,4.83
2019-04-03T07:48:25.087Z,5.15
2019-04-03T07:51:06.575Z,4.87
2019-04-03T07:53:48.681Z,4.60
2019-04-03T07:56:30.011Z,4.70
2019-04-03T07:59:10.567Z,4.20
2019-04-03T08:01:51.155Z,4.25
2019-04-03T08:04:31.683Z,4.70
2019-04-03T08:07:12.373Z,4.62
2019-04-03T08:09:53.054Z,4.60
2019-04-03T08:12:35.446Z,3.87
2019-04-03T08:15:15.947Z,4.42
2019-04-03T08:17:57.847Z,4.30
2019-04-03T08:20:39.379Z,4.95
2019-04-03T08:23:18.730Z,5.50
2019-04-03T08:26:06.562Z,6.35
2019-04-03T08:28:54.417Z,6.08
2019-04-03T08:31:43.680Z,6.28
2019-04-03T08:34:32.240Z,6.53
2019-04-03T08:37:29.502Z,7.12
2019-04-03T08:40:11.803Z,7.60
2019-04-03T08:43:01.454Z,7.45
2019-04-03T08:45:49.567Z,6.65
2019-04-03T08:48:39.000Z,3.87
2019-04-03T08:51:26.925Z,2.58
2019-04-03T08:54:15.027Z,1.40
2019-04-03T08:56:55.722Z,1.20
2019-04-03T08:59:36.265Z,1.10
2019-04-03T09:02:17.159Z,1.30
2019-04-03T09:04:57.738Z,1.80
2019-04-03T09:07:38.383Z,1.75
2019-04-03T09:10:19.108Z,2.85
2019-04-03T09:12:59.425Z,1.72
2019-04-03T09:15:40.109Z,2.42
2019-04-03T09:18:20.793Z,4.17
2019-04-03T09:21:01.692Z,3.95
2019-04-03T09:23:42.735Z,2.20
2019-04-03T09:26:23.422Z,3.37
2019-04-03T09:29:04.473Z,2.90
2019-04-03T09:31:50.656Z,2.52
2019-04-03T09:34:34.164Z,1.32
2019-04-03T09:37:17.477Z,0.80
2019-04-03T09:39:56.715Z,0.62
2019-04-03T09:42:37.662Z,0.40
2019-04-03T09:45:18.093Z,0.40
2019-04-03T09:47:58.646Z,0.30
2019-04-03T09:50:39.626Z,0.35
2019-04-03T09:56:08.048Z,0.40
2019-04-03T09:58:48.625Z,0.40
2019-04-03T10:01:29.695Z,0.60
2019-04-03T10:06:56.868Z,0.60
2019-04-03T10:15:18.363Z,0.50
2019-04-03T10:17:58.805Z,0.53
2019-04-03T10:59:55.066Z,0.60
2019-04-03T11:02:36.635Z,0.37
2019-04-03T11:05:17.690Z,0.40
2019-04-03T11:07:58.738Z,0.40
2019-04-03T11:10:39.119Z,0.20
2019-04-03T11:13:22.883Z,0.40
2019-04-03T11:16:03.400Z,0.30
2019-04-03T11:18:44.103Z,0.33
2019-04-03T11:21:25.410Z,0.30
2019-04-03T11:24:07.236Z,0.40
2019-04-03T11:26:50.650Z,0.42
2019-04-03T11:29:30.876Z,0.30
2019-04-03T11:32:11.398Z,0.33
2019-04-03T11:34:53.734Z,0.50
2019-04-03T11:37:35.133Z,0.30
2019-04-03T11:40:17.419Z,0.30
2019-04-03T11:42:58.833Z,0.40
2019-04-03T11:45:39.749Z,0.25
2019-04-03T11:48:19.123Z,0.30
2019-04-03T11:51:07.014Z,0.30
2019-04-03T11:53:54.905Z,0.40
2019-04-03T11:56:35.871Z,0.30
2019-04-03T11:59:16.591Z,0.30
2019-04-03T12:01:57.839Z,0.40
2019-04-03T12:04:39.062Z,0.30
2019-04-03T12:07:20.743Z,0.33
2019-04-03T12:10:03.517Z,0.30
2019-04-03T12:12:44.201Z,0.30
2019-04-03T12:15:25.206Z,0.40
2019-04-03T12:18:05.595Z,0.60
2019-04-03T12:20:49.386Z,0.45
2019-04-03T12:23:29.031Z,0.53
2019-04-03T12:26:11.311Z,0.40
2019-04-03T12:28:52.650Z,0.40
2019-04-03T12:31:34.623Z,0.40
2019-04-03T12:34:15.650Z,0.50
2019-04-03T12:36:55.964Z,0.30
2019-04-03T12:39:36.897Z,0.37
2019-04-03T12:42:18.322Z,0.50
2019-04-03T12:44:58.939Z,0.50
2019-04-03T12:47:42.857Z,0.40
2019-04-03T12:50:22.725Z,0.40
2019-04-03T12:53:03.139Z,0.47
2019-04-03T12:55:44.020Z,0.50
2019-04-03T12:58:25.754Z,0.40
2019-04-03T13:01:06.057Z,0.50
2019-04-03T13:03:46.330Z,0.40
2019-04-03T13:06:27.098Z,0.50
2019-04-03T13:09:08.367Z,0.60
2019-04-03T13:11:50.424Z,0.40
2019-04-03T13:14:33.438Z,0.68
2019-04-03T13:17:14.788Z,0.60
2019-04-03T13:19:58.151Z,0.72
2019-04-03T13:22:41.302Z,0.88
2019-04-03T13:25:22.266Z,0.72
2019-04-03T13:28:04.852Z,1.02
2019-04-03T13:30:46.255Z,1.15
2019-04-03T13:36:19.764Z,1.30
2019-04-03T13:41:49.480Z,1.40
2019-04-03T13:47:19.561Z,1.27
2019-04-03T13:50:03.710Z,1.02
2019-04-03T14:21:00.162Z,1.22
2019-04-03T14:26:27.360Z,1.27
2019-04-03T14:29:08.863Z,1.30
2019-04-03T14:31:50.066Z,1.15
2019-04-03T14:34:31.194Z,1.22
2019-04-03T14:37:12.392Z,1.45
2019-04-03T14:39:53.272Z,1.20
2019-04-03T14:42:34.227Z,1.30
2019-04-03T14:45:15.311Z,1.12
2019-04-03T14:47:57.082Z,1.40
2019-04-03T14:50:38.353Z,1.32
2019-04-03T14:53:20.224Z,1.52
2019-04-03T14:56:02.057Z,1.75
2019-04-03T14:58:42.566Z,1.55
2019-04-03T15:01:23.015Z,1.77
2019-04-03T15:04:04.118Z,1.70
2019-04-03T15:06:46.381Z,1.87
2019-04-03T15:09:28.086Z,1.70
2019-04-03T15:12:11.779Z,1.60
2019-04-03T15:14:53.824Z,1.70
2019-04-03T15:17:36.709Z,1.80
2019-04-03T15:20:18.373Z,1.90
2019-04-03T15:22:59.782Z,1.82
2019-04-03T15:25:42.595Z,2.37
2019-04-03T15:28:23.355Z,2.05
2019-04-03T15:31:04.356Z,2.20
2019-04-03T15:33:44.972Z,2.20
2019-04-03T15:36:26.307Z,2.40
2019-04-03T15:39:08.584Z,2.62
2019-04-03T15:41:49.848Z,2.80
2019-04-03T15:44:30.713Z,2.50
2019-04-03T15:47:13.298Z,2.50
2019-04-03T15:49:52.535Z,3.50
2019-04-03T15:52:43.473Z,2.80
2019-04-03T15:55:29.951Z,3.27
2019-04-03T15:58:10.648Z,3.08
2019-04-03T16:00:51.484Z,3.08
2019-04-03T16:03:32.918Z,2.58
2019-04-03T16:06:13.429Z,2.65
2019-04-03T16:08:54.494Z,3.35
2019-04-03T16:11:36.012Z,3.00
2019-04-03T16:14:19.889Z,3.02
2019-04-03T16:17:02.202Z,2.52
2019-04-03T16:19:43.376Z,2.30
2019-04-03T16:22:24.855Z,2.15
2019-04-03T16:25:05.861Z,2.55
2019-04-03T16:27:46.589Z,1.20
2019-04-03T16:30:27.551Z,1.10
2019-04-03T16:33:18.948Z,1.35
2019-04-03T16:35:51.539Z,1.00
2019-04-03T16:38:35.251Z,1.62
2019-04-03T16:41:15.781Z,1.00
2019-04-03T16:43:56.286Z,1.10
2019-04-03T16:46:36.647Z,1.17
2019-04-03T16:49:17.438Z,1.00
2019-04-03T16:51:58.499Z,1.12
2019-04-03T16:54:39.436Z,0.90
2019-04-03T16:57:22.221Z,1.15
2019-04-03T17:00:03.105Z,1.00
2019-04-03T17:02:43.993Z,1.07
2019-04-03T17:05:28.079Z,0.78
2019-04-03T17:08:09.245Z,1.00
2019-04-03T17:10:49.647Z,1.02
2019-04-03T17:13:30.376Z,1.20
2019-04-03T17:16:13.717Z,1.32
2019-04-03T17:18:53.646Z,1.25
2019-04-03T17:24:17.809Z,1.42
2019-04-03T17:29:46.692Z,1.25
2019-04-03T17:35:13.402Z,1.07
2019-04-03T17:40:38.827Z,1.00
2019-04-03T17:46:12.140Z,0.75
2019-04-03T17:54:39.088Z,1.30
2019-04-03T18:14:12.367Z,2.00
2019-04-03T18:25:13.413Z,1.98
2019-04-03T18:27:56.250Z,1.27
2019-04-03T18:33:33.294Z,1.87
2019-04-03T18:36:13.863Z,1.65
2019-04-03T18:38:54.383Z,1.52
2019-04-03T18:41:35.062Z,1.85
2019-04-03T18:44:22.010Z,1.45
2019-04-03T18:46:58.451Z,1.60
2019-04-03T18:49:39.303Z,1.65
2019-04-03T18:52:20.579Z,1.70
2019-04-03T18:55:02.052Z,1.90
2019-04-03T18:57:42.318Z,1.80
2019-04-03T19:00:23.243Z,1.70
2019-04-03T19:03:04.080Z,1.87
2019-04-03T19:05:46.466Z,1.98
2019-04-03T19:08:27.174Z,2.00
2019-04-03T19:11:09.766Z,2.15
2019-04-03T19:13:50.595Z,2.33
2019-04-03T19:16:43.637Z,2.67
2019-04-03T19:19:16.387Z,2.80
2019-04-03T19:21:57.320Z,2.58
2019-04-03T19:24:37.710Z,2.60
2019-04-03T19:27:18.192Z,2.65
2019-04-03T19:29:58.755Z,2.60
2019-04-03T19:32:39.373Z,2.08
2019-04-03T19:35:21.959Z,2.58
2019-04-03T19:38:04.618Z,2.52
2019-04-03T19:40:45.316Z,2.17
2019-04-03T19:43:25.648Z,2.42
2019-04-03T19:46:06.228Z,2.95
2019-04-03T19:48:46.735Z,2.52
2019-04-03T19:51:27.652Z,2.65
2019-04-03T19:54:08.315Z,2.37
2019-04-03T19:56:49.479Z,2.10
2019-04-03T19:59:34.209Z,1.92
2019-04-03T20:02:13.592Z,1.85
2019-04-03T20:04:54.298Z,2.15
2019-04-03T20:07:35.179Z,1.90
2019-04-03T20:10:16.599Z,1.70
2019-04-03T20:12:57.809Z,2.15
2019-04-03T20:15:38.428Z,1.20
2019-04-03T20:18:19.191Z,1.20
2019-04-03T20:21:01.951Z,1.20
2019-04-03T20:23:43.450Z,1.50
2019-04-03T20:26:24.507Z,1.32
2019-04-03T20:29:04.719Z,1.15
2019-04-03T20:31:45.503Z,1.00
2019-04-03T20:34:25.958Z,0.90
2019-04-03T20:37:06.483Z,1.12
2019-04-03T20:42:29.331Z,0.62
2019-04-03T20:45:09.690Z,0.55
2019-04-03T20:47:50.748Z,0.60
2019-04-03T20:50:32.295Z,0.75
2019-04-03T20:53:16.779Z,0.80
2019-04-03T20:55:58.032Z,0.78
2019-04-03T20:58:40.691Z,0.75
2019-04-03T21:01:21.723Z,0.60
2019-04-03T21:06:45.773Z,0.72
2019-04-03T21:12:13.950Z,0.78
2019-04-03T21:15:07.399Z,0.93
2019-04-03T21:17:37.811Z,0.93
2019-04-03T21:23:10.705Z,1.02
2019-04-03T21:25:51.195Z,1.00
2019-04-03T21:28:35.486Z,1.17
2019-04-03T21:36:44.646Z,1.30
2019-04-03T21:39:25.630Z,1.30
2019-04-03T21:42:06.130Z,1.32
2019-04-03T21:44:46.908Z,1.45
2019-04-03T21:47:28.024Z,1.10
2019-04-03T21:50:08.712Z,1.25
2019-04-03T21:52:49.110Z,1.22
2019-04-03T21:55:30.965Z,1.40
2019-04-03T21:58:12.683Z,1.65
2019-04-03T22:00:55.226Z,1.05
2019-04-03T22:03:36.231Z,1.17
2019-04-03T22:06:16.606Z,1.20
2019-04-03T22:08:59.623Z,1.17
2019-04-03T22:11:39.403Z,1.12
2019-04-03T22:14:20.129Z,1.25
2019-04-03T22:17:00.964Z,1.42
2019-04-03T22:19:41.695Z,1.20
2019-04-03T22:22:22.494Z,1.62
2019-04-03T22:25:03.032Z,1.75
2019-04-03T22:27:44.133Z,1.65
2019-04-03T22:30:25.364Z,1.60
2019-04-03T22:33:05.647Z,1.52
2019-04-03T22:35:46.214Z,2.20
2019-04-03T22:38:26.719Z,1.92
2019-04-03T22:41:07.208Z,1.87
2019-04-03T22:43:47.589Z,2.42
2019-04-03T22:46:28.405Z,2.62
2019-04-03T22:49:08.706Z,2.47
2019-04-03T22:51:49.027Z,2.90
2019-04-03T22:54:29.858Z,2.90
2019-04-03T22:57:10.210Z,2.85
2019-04-03T22:59:51.006Z,2.87
2019-04-03T23:02:31.734Z,3.30
2019-04-03T23:05:12.935Z,3.30
2019-04-03T23:07:53.411Z,3.75
2019-04-03T23:10:33.923Z,3.95
2019-04-03T23:13:14.522Z,4.15
2019-04-03T23:15:55.734Z,3.85
2019-04-03T23:18:34.711Z,3.72
2019-04-03T23:24:16.107Z,3.95
2019-04-03T23:30:10.993Z,5.33
2019-04-03T23:32:58.866Z,5.58
2019-04-03T23:35:46.966Z,5.53
2019-04-03T23:38:34.812Z,5.83
2019-04-03T23:41:22.669Z,6.83
2019-04-03T23:44:11.667Z,5.87
2019-04-03T23:47:00.647Z,6.60
2019-04-03T23:49:50.901Z,6.85
2019-04-03T23:52:38.067Z,8.58
2019-04-03T23:55:25.924Z,8.38
2019-04-03T23:58:07.044Z,8.65
